sensor_id;sensor_type;location;lat;lon;timestamp;P1;durP1;ratioP1;P2;durP2;ratioP2
75793;SDS011;64418;47.536;19.074;2023-11-21T00:00:47;10.85;;;5.55;;
75793;SDS011;64418;47.536;19.074;2023-11-21T00:03:15;9.55;;;5.78;;
75793;SDS011;64418;47.536;19.074;2023-11-21T00:05:45;12.27;;;5.97;;
75793;SDS011;64418;47.536;19.074;2023-11-21T00:08:21;11.00;;;6.20;;
75793;SDS011;64418;47.536;19.074;2023-11-21T00:10:47;11.75;;;6.72;;
75793;SDS011;64418;47.536;19.074;2023-11-21T00:13:13;9.48;;;5.60;;
75793;SDS011;64418;47.536;19.074;2023-11-21T00:15:39;9.52;;;5.30;;
75793;SDS011;64418;47.536;19.074;2023-11-21T00:18:09;9.90;;;5.33;;
75793;SDS011;64418;47.536;19.074;2023-11-21T00:20:35;11.12;;;5.47;;
75793;SDS011;64418;47.536;19.074;2023-11-21T00:23:03;11.05;;;5.62;;
75793;SDS011;64418;47.536;19.074;2023-11-21T00:25:29;10.38;;;5.32;;
75793;SDS011;64418;47.536;19.074;2023-11-21T00:27:57;10.23;;;5.60;;
75793;SDS011;64418;47.536;19.074;2023-11-21T00:30:25;10.77;;;6.63;;
75793;SDS011;64418;47.536;19.074;2023-11-21T00:32:52;11.77;;;5.93;;
75793;SDS011;64418;47.536;19.074;2023-11-21T00:35:18;11.27;;;5.93;;
75793;SDS011;64418;47.536;19.074;2023-11-21T00:37:44;13.27;;;6.27;;
75793;SDS011;64418;47.536;19.074;2023-11-21T00:40:15;10.03;;;6.00;;
75793;SDS011;64418;47.536;19.074;2023-11-21T00:42:41;17.62;;;6.93;;
75793;SDS011;64418;47.536;19.074;2023-11-21T00:45:08;12.07;;;6.32;;
75793;SDS011;64418;47.536;19.074;2023-11-21T00:47:35;10.73;;;6.62;;
75793;SDS011;64418;47.536;19.074;2023-11-21T00:50:04;13.13;;;6.60;;
75793;SDS011;64418;47.536;19.074;2023-11-21T00:52:30;13.43;;;6.50;;
75793;SDS011;64418;47.536;19.074;2023-11-21T00:54:56;12.10;;;6.03;;
75793;SDS011;64418;47.536;19.074;2023-11-21T00:57:32;10.88;;;6.03;;
75793;SDS011;64418;47.536;19.074;2023-11-21T01:00:01;11.50;;;5.80;;
75793;SDS011;64418;47.536;19.074;2023-11-21T01:02:28;13.35;;;5.57;;
75793;SDS011;64418;47.536;19.074;2023-11-21T01:04:54;9.63;;;5.60;;
75793;SDS011;64418;47.536;19.074;2023-11-21T01:07:21;12.05;;;5.78;;
75793;SDS011;64418;47.536;19.074;2023-11-21T01:09:47;9.80;;;5.35;;
75793;SDS011;64418;47.536;19.074;2023-11-21T01:12:13;8.27;;;5.47;;
75793;SDS011;64418;47.536;19.074;2023-11-21T01:14:41;10.30;;;5.30;;
75793;SDS011;64418;47.536;19.074;2023-11-21T01:17:07;9.00;;;5.20;;
75793;SDS011;64418;47.536;19.074;2023-11-21T01:19:33;9.95;;;5.05;;
75793;SDS011;64418;47.536;19.074;2023-11-21T01:22:00;11.32;;;5.50;;
75793;SDS011;64418;47.536;19.074;2023-11-21T01:24:27;11.20;;;5.30;;
75793;SDS011;64418;47.536;19.074;2023-11-21T01:26:53;8.63;;;5.00;;
75793;SDS011;64418;47.536;19.074;2023-11-21T01:29:19;10.15;;;5.50;;
75793;SDS011;64418;47.536;19.074;2023-11-21T01:31:46;8.40;;;4.80;;
75793;SDS011;64418;47.536;19.074;2023-11-21T01:34:12;10.32;;;5.45;;
75793;SDS011;64418;47.536;19.074;2023-11-21T01:36:38;10.53;;;4.83;;
75793;SDS011;64418;47.536;19.074;2023-11-21T01:39:05;10.40;;;6.07;;
75793;SDS011;64418;47.536;19.074;2023-11-21T01:41:32;11.55;;;4.95;;
75793;SDS011;64418;47.536;19.074;2023-11-21T01:44:00;12.07;;;5.32;;
75793;SDS011;64418;47.536;19.074;2023-11-21T01:46:27;9.93;;;5.97;;
75793;SDS011;64418;47.536;19.074;2023-11-21T01:51:48;13.68;;;5.40;;
75793;SDS011;64418;47.536;19.074;2023-11-21T01:54:25;11.90;;;5.47;;
75793;SDS011;64418;47.536;19.074;2023-11-21T01:56:52;9.63;;;5.37;;
75793;SDS011;64418;47.536;19.074;2023-11-21T01:59:19;10.37;;;5.60;;
75793;SDS011;64418;47.536;19.074;2023-11-21T02:01:47;11.68;;;5.55;;
75793;SDS011;64418;47.536;19.074;2023-11-21T02:04:15;12.25;;;5.72;;
75793;SDS011;64418;47.536;19.074;2023-11-21T02:06:42;13.55;;;5.80;;
75793;SDS011;64418;47.536;19.074;2023-11-21T02:09:09;10.52;;;5.62;;
75793;SDS011;64418;47.536;19.074;2023-11-21T02:11:35;11.43;;;5.30;;
75793;SDS011;64418;47.536;19.074;2023-11-21T02:14:01;11.52;;;5.62;;
75793;SDS011;64418;47.536;19.074;2023-11-21T02:16:27;13.13;;;6.45;;
75793;SDS011;64418;47.536;19.074;2023-11-21T02:18:53;11.00;;;5.80;;
75793;SDS011;64418;47.536;19.074;2023-11-21T02:21:22;13.37;;;5.87;;
75793;SDS011;64418;47.536;19.074;2023-11-21T02:23:53;10.63;;;5.75;;
75793;SDS011;64418;47.536;19.074;2023-11-21T02:26:19;7.85;;;5.03;;
75793;SDS011;64418;47.536;19.074;2023-11-21T02:28:45;10.98;;;6.22;;
75793;SDS011;64418;47.536;19.074;2023-11-21T02:31:11;13.97;;;6.30;;
75793;SDS011;64418;47.536;19.074;2023-11-21T02:33:37;10.18;;;5.62;;
75793;SDS011;64418;47.536;19.074;2023-11-21T02:36:04;12.50;;;5.85;;
75793;SDS011;64418;47.536;19.074;2023-11-21T02:38:30;10.65;;;6.07;;
75793;SDS011;64418;47.536;19.074;2023-11-21T02:41:01;10.63;;;6.10;;
75793;SDS011;64418;47.536;19.074;2023-11-21T02:43:29;13.18;;;6.60;;
75793;SDS011;64418;47.536;19.074;2023-11-21T02:45:55;11.23;;;6.30;;
75793;SDS011;64418;47.536;19.074;2023-11-21T02:48:22;11.20;;;5.93;;
75793;SDS011;64418;47.536;19.074;2023-11-21T02:50:47;10.03;;;6.07;;
75793;SDS011;64418;47.536;19.074;2023-11-21T02:53:13;11.32;;;5.57;;
75793;SDS011;64418;47.536;19.074;2023-11-21T02:55:40;9.63;;;6.22;;
75793;SDS011;64418;47.536;19.074;2023-11-21T02:58:09;10.53;;;6.40;;
75793;SDS011;64418;47.536;19.074;2023-11-21T03:00:35;10.40;;;6.12;;
75793;SDS011;64418;47.536;19.074;2023-11-21T03:03:02;13.55;;;6.70;;
75793;SDS011;64418;47.536;19.074;2023-11-21T03:05:29;10.93;;;6.50;;
75793;SDS011;64418;47.536;19.074;2023-11-21T03:07:55;18.00;;;5.97;;
75793;SDS011;64418;47.536;19.074;2023-11-21T03:10:21;8.33;;;5.53;;
75793;SDS011;64418;47.536;19.074;2023-11-21T03:12:46;13.15;;;5.90;;
75793;SDS011;64418;47.536;19.074;2023-11-21T03:15:21;9.95;;;5.60;;
75793;SDS011;64418;47.536;19.074;2023-11-21T03:17:48;9.77;;;5.50;;
75793;SDS011;64418;47.536;19.074;2023-11-21T03:20:13;13.68;;;5.12;;
75793;SDS011;64418;47.536;19.074;2023-11-21T03:22:40;10.65;;;5.80;;
75793;SDS011;64418;47.536;19.074;2023-11-21T03:25:07;12.32;;;5.68;;
75793;SDS011;64418;47.536;19.074;2023-11-21T03:27:33;11.57;;;5.63;;
75793;SDS011;64418;47.536;19.074;2023-11-21T03:29:59;12.07;;;4.95;;
75793;SDS011;64418;47.536;19.074;2023-11-21T03:32:27;13.13;;;5.20;;
75793;SDS011;64418;47.536;19.074;2023-11-21T03:34:53;12.65;;;5.37;;
75793;SDS011;64418;47.536;19.074;2023-11-21T03:37:20;8.27;;;4.70;;
75793;SDS011;64418;47.536;19.074;2023-11-21T03:39:48;9.00;;;5.13;;
75793;SDS011;64418;47.536;19.074;2023-11-21T03:42:14;9.98;;;4.80;;
75793;SDS011;64418;47.536;19.074;2023-11-21T03:44:40;7.28;;;4.30;;
75793;SDS011;64418;47.536;19.074;2023-11-21T03:47:07;9.35;;;4.87;;
75793;SDS011;64418;47.536;19.074;2023-11-21T03:49:38;10.30;;;5.73;;
75793;SDS011;64418;47.536;19.074;2023-11-21T03:52:05;13.45;;;5.43;;
75793;SDS011;64418;47.536;19.074;2023-11-21T03:54:31;11.95;;;6.53;;
75793;SDS011;64418;47.536;19.074;2023-11-21T03:56:58;12.88;;;6.55;;
75793;SDS011;64418;47.536;19.074;2023-11-21T03:59:24;9.67;;;6.40;;
75793;SDS011;64418;47.536;19.074;2023-11-21T04:01:50;11.10;;;6.63;;
75793;SDS011;64418;47.536;19.074;2023-11-21T04:04:18;14.32;;;6.53;;
75793;SDS011;64418;47.536;19.074;2023-11-21T04:06:46;11.52;;;5.57;;
75793;SDS011;64418;47.536;19.074;2023-11-21T04:09:12;10.95;;;5.78;;
75793;SDS011;64418;47.536;19.074;2023-11-21T04:11:39;7.80;;;5.05;;
75793;SDS011;64418;47.536;19.074;2023-11-21T04:14:08;10.07;;;5.67;;
75793;SDS011;64418;47.536;19.074;2023-11-21T04:16:34;12.65;;;5.78;;
75793;SDS011;64418;47.536;19.074;2023-11-21T04:19:00;12.27;;;6.22;;
75793;SDS011;64418;47.536;19.074;2023-11-21T04:21:27;10.95;;;6.72;;
75793;SDS011;64418;47.536;19.074;2023-11-21T04:23:55;12.30;;;6.63;;
75793;SDS011;64418;47.536;19.074;2023-11-21T04:26:24;13.23;;;6.22;;
75793;SDS011;64418;47.536;19.074;2023-11-21T04:28:51;13.98;;;6.60;;
75793;SDS011;64418;47.536;19.074;2023-11-21T04:31:17;13.10;;;7.37;;
75793;SDS011;64418;47.536;19.074;2023-11-21T04:33:43;13.90;;;7.40;;
75793;SDS011;64418;47.536;19.074;2023-11-21T04:36:09;13.80;;;7.97;;
75793;SDS011;64418;47.536;19.074;2023-11-21T04:38:35;14.50;;;6.97;;
75793;SDS011;64418;47.536;19.074;2023-11-21T04:41:05;14.43;;;7.43;;
75793;SDS011;64418;47.536;19.074;2023-11-21T04:43:34;13.10;;;7.07;;
75793;SDS011;64418;47.536;19.074;2023-11-21T04:46:00;17.93;;;7.60;;
75793;SDS011;64418;47.536;19.074;2023-11-21T04:48:27;15.43;;;8.10;;
75793;SDS011;64418;47.536;19.074;2023-11-21T04:51:20;14.38;;;7.93;;
75793;SDS011;64418;47.536;19.074;2023-11-21T04:53:47;16.20;;;8.27;;
75793;SDS011;64418;47.536;19.074;2023-11-21T04:56:19;12.98;;;8.63;;
75793;SDS011;64418;47.536;19.074;2023-11-21T04:58:45;15.80;;;8.43;;
75793;SDS011;64418;47.536;19.074;2023-11-21T05:01:11;20.17;;;8.38;;
75793;SDS011;64418;47.536;19.074;2023-11-21T05:03:37;18.57;;;9.10;;
75793;SDS011;64418;47.536;19.074;2023-11-21T05:06:03;17.12;;;9.60;;
75793;SDS011;64418;47.536;19.074;2023-11-21T05:08:29;16.52;;;9.57;;
75793;SDS011;64418;47.536;19.074;2023-11-21T05:10:55;15.52;;;9.20;;
75793;SDS011;64418;47.536;19.074;2023-11-21T05:13:22;18.67;;;10.33;;
75793;SDS011;64418;47.536;19.074;2023-11-21T05:15:49;15.32;;;9.02;;
75793;SDS011;64418;47.536;19.074;2023-11-21T05:18:15;18.00;;;9.13;;
75793;SDS011;64418;47.536;19.074;2023-11-21T05:20:42;16.77;;;8.82;;
75793;SDS011;64418;47.536;19.074;2023-11-21T05:23:08;14.05;;;6.45;;
75793;SDS011;64418;47.536;19.074;2023-11-21T05:25:34;18.07;;;8.50;;
75793;SDS011;64418;47.536;19.074;2023-11-21T05:28:00;19.10;;;9.23;;
75793;SDS011;64418;47.536;19.074;2023-11-21T05:30:29;15.05;;;9.20;;
75793;SDS011;64418;47.536;19.074;2023-11-21T05:32:55;15.30;;;9.50;;
75793;SDS011;64418;47.536;19.074;2023-11-21T05:35:21;16.15;;;9.65;;
75793;SDS011;64418;47.536;19.074;2023-11-21T05:37:47;20.05;;;11.15;;
75793;SDS011;64418;47.536;19.074;2023-11-21T05:40:15;29.05;;;13.10;;
75793;SDS011;64418;47.536;19.074;2023-11-21T05:42:42;23.62;;;11.07;;
75793;SDS011;64418;47.536;19.074;2023-11-21T05:45:08;25.03;;;10.53;;
75793;SDS011;64418;47.536;19.074;2023-11-21T05:47:39;17.58;;;10.30;;
75793;SDS011;64418;47.536;19.074;2023-11-21T05:50:08;16.77;;;10.45;;
75793;SDS011;64418;47.536;19.074;2023-11-21T05:52:34;21.75;;;10.95;;
75793;SDS011;64418;47.536;19.074;2023-11-21T05:55:00;19.40;;;10.27;;
75793;SDS011;64418;47.536;19.074;2023-11-21T05:57:27;19.07;;;10.33;;
75793;SDS011;64418;47.536;19.074;2023-11-21T05:59:54;18.45;;;9.43;;
75793;SDS011;64418;47.536;19.074;2023-11-21T06:02:21;16.20;;;9.00;;
75793;SDS011;64418;47.536;19.074;2023-11-21T06:04:49;14.77;;;8.60;;
75793;SDS011;64418;47.536;19.074;2023-11-21T06:07:15;16.08;;;8.77;;
75793;SDS011;64418;47.536;19.074;2023-11-21T06:09:45;18.93;;;9.07;;
75793;SDS011;64418;47.536;19.074;2023-11-21T06:12:16;15.52;;;8.45;;
75793;SDS011;64418;47.536;19.074;2023-11-21T06:14:42;14.20;;;6.65;;
75793;SDS011;64418;47.536;19.074;2023-11-21T06:17:08;14.07;;;6.57;;
75793;SDS011;64418;47.536;19.074;2023-11-21T06:19:34;14.63;;;6.93;;
75793;SDS011;64418;47.536;19.074;2023-11-21T06:22:04;12.32;;;6.97;;
75793;SDS011;64418;47.536;19.074;2023-11-21T06:24:34;16.55;;;7.20;;
75793;SDS011;64418;47.536;19.074;2023-11-21T06:27:00;10.57;;;6.12;;
75793;SDS011;64418;47.536;19.074;2023-11-21T06:29:28;13.20;;;6.30;;
75793;SDS011;64418;47.536;19.074;2023-11-21T06:31:54;11.73;;;6.93;;
75793;SDS011;64418;47.536;19.074;2023-11-21T06:34:20;14.85;;;6.43;;
75793;SDS011;64418;47.536;19.074;2023-11-21T06:36:48;21.67;;;9.65;;
75793;SDS011;64418;47.536;19.074;2023-11-21T06:39:22;32.03;;;12.43;;
75793;SDS011;64418;47.536;19.074;2023-11-21T06:41:48;20.93;;;11.47;;
75793;SDS011;64418;47.536;19.074;2023-11-21T06:44:14;26.05;;;12.75;;
75793;SDS011;64418;47.536;19.074;2023-11-21T06:46:40;25.33;;;12.37;;
75793;SDS011;64418;47.536;19.074;2023-11-21T06:49:09;22.30;;;13.10;;
75793;SDS011;64418;47.536;19.074;2023-11-21T06:51:35;21.77;;;11.90;;
75793;SDS011;64418;47.536;19.074;2023-11-21T06:54:02;22.37;;;13.20;;
75793;SDS011;64418;47.536;19.074;2023-11-21T06:56:31;25.08;;;13.38;;
75793;SDS011;64418;47.536;19.074;2023-11-21T06:58:57;24.60;;;12.90;;
75793;SDS011;64418;47.536;19.074;2023-11-21T07:01:23;29.92;;;13.57;;
75793;SDS011;64418;47.536;19.074;2023-11-21T07:03:57;24.25;;;13.07;;
75793;SDS011;64418;47.536;19.074;2023-11-21T07:09:01;26.25;;;13.10;;
75793;SDS011;64418;47.536;19.074;2023-11-21T07:11:44;27.42;;;12.90;;
75793;SDS011;64418;47.536;19.074;2023-11-21T07:14:19;28.02;;;12.95;;
75793;SDS011;64418;47.536;19.074;2023-11-21T07:16:46;24.77;;;13.00;;
75793;SDS011;64418;47.536;19.074;2023-11-21T07:19:14;29.10;;;14.23;;
75793;SDS011;64418;47.536;19.074;2023-11-21T07:21:41;26.10;;;13.27;;
75793;SDS011;64418;47.536;19.074;2023-11-21T07:24:10;29.10;;;13.45;;
75793;SDS011;64418;47.536;19.074;2023-11-21T07:26:36;26.92;;;12.55;;
75793;SDS011;64418;47.536;19.074;2023-11-21T07:29:04;27.87;;;13.30;;
75793;SDS011;64418;47.536;19.074;2023-11-21T07:31:30;24.33;;;13.30;;
75793;SDS011;64418;47.536;19.074;2023-11-21T07:33:56;23.23;;;11.93;;
75793;SDS011;64418;47.536;19.074;2023-11-21T07:36:24;24.33;;;12.13;;
75793;SDS011;64418;47.536;19.074;2023-11-21T07:38:50;24.65;;;12.57;;
75793;SDS011;64418;47.536;19.074;2023-11-21T07:41:17;24.90;;;10.90;;
75793;SDS011;64418;47.536;19.074;2023-11-21T07:43:44;22.37;;;11.20;;
75793;SDS011;64418;47.536;19.074;2023-11-21T07:46:15;27.35;;;13.98;;
75793;SDS011;64418;47.536;19.074;2023-11-21T07:48:42;32.97;;;13.07;;
75793;SDS011;64418;47.536;19.074;2023-11-21T07:51:09;23.10;;;12.88;;
75793;SDS011;64418;47.536;19.074;2023-11-21T07:53:37;21.80;;;12.50;;
75793;SDS011;64418;47.536;19.074;2023-11-21T07:56:04;30.05;;;11.82;;
75793;SDS011;64418;47.536;19.074;2023-11-21T07:58:32;20.60;;;12.30;;
75793;SDS011;64418;47.536;19.074;2023-11-21T08:01:02;26.85;;;11.43;;
75793;SDS011;64418;47.536;19.074;2023-11-21T08:03:32;20.33;;;11.05;;
75793;SDS011;64418;47.536;19.074;2023-11-21T08:05:58;28.40;;;11.20;;
75793;SDS011;64418;47.536;19.074;2023-11-21T08:08:26;24.70;;;11.52;;
75793;SDS011;64418;47.536;19.074;2023-11-21T08:10:53;22.52;;;11.12;;
75793;SDS011;64418;47.536;19.074;2023-11-21T08:13:19;25.52;;;10.75;;
75793;SDS011;64418;47.536;19.074;2023-11-21T08:15:45;20.10;;;9.80;;
75793;SDS011;64418;47.536;19.074;2023-11-21T08:18:11;18.70;;;9.57;;
75793;SDS011;64418;47.536;19.074;2023-11-21T08:20:41;26.08;;;9.80;;
75793;SDS011;64418;47.536;19.074;2023-11-21T08:23:10;17.08;;;9.45;;
75793;SDS011;64418;47.536;19.074;2023-11-21T08:25:39;19.37;;;9.82;;
75793;SDS011;64418;47.536;19.074;2023-11-21T08:28:10;14.87;;;7.50;;
75793;SDS011;64418;47.536;19.074;2023-11-21T08:30:36;12.10;;;6.40;;
75793;SDS011;64418;47.536;19.074;2023-11-21T08:33:03;18.90;;;7.80;;
75793;SDS011;64418;47.536;19.074;2023-11-21T08:35:31;19.45;;;8.82;;
75793;SDS011;64418;47.536;19.074;2023-11-21T08:37:59;12.95;;;7.00;;
75793;SDS011;64418;47.536;19.074;2023-11-21T08:40:28;19.50;;;7.10;;
75793;SDS011;64418;47.536;19.074;2023-11-21T08:42:55;20.17;;;6.80;;
75793;SDS011;64418;47.536;19.074;2023-11-21T08:45:24;15.15;;;6.97;;
75793;SDS011;64418;47.536;19.074;2023-11-21T08:47:51;17.15;;;6.70;;
75793;SDS011;64418;47.536;19.074;2023-11-21T08:50:18;16.20;;;6.55;;
75793;SDS011;64418;47.536;19.074;2023-11-21T08:52:46;18.17;;;6.77;;
75793;SDS011;64418;47.536;19.074;2023-11-21T08:55:15;20.50;;;6.57;;
75793;SDS011;64418;47.536;19.074;2023-11-21T08:57:43;16.48;;;5.78;;
75793;SDS011;64418;47.536;19.074;2023-11-21T09:00:10;13.77;;;5.93;;
75793;SDS011;64418;47.536;19.074;2023-11-21T09:02:44;19.30;;;6.62;;
75793;SDS011;64418;47.536;19.074;2023-11-21T09:05:12;16.17;;;6.17;;
75793;SDS011;64418;47.536;19.074;2023-11-21T09:07:41;16.45;;;5.60;;
75793;SDS011;64418;47.536;19.074;2023-11-21T09:10:10;15.68;;;6.00;;
75793;SDS011;64418;47.536;19.074;2023-11-21T09:12:46;9.38;;;5.35;;
75793;SDS011;64418;47.536;19.074;2023-11-21T09:15:14;13.13;;;6.35;;
75793;SDS011;64418;47.536;19.074;2023-11-21T09:17:40;14.33;;;4.40;;
75793;SDS011;64418;47.536;19.074;2023-11-21T09:20:10;8.93;;;3.60;;
75793;SDS011;64418;47.536;19.074;2023-11-21T09:22:37;9.52;;;3.72;;
75793;SDS011;64418;47.536;19.074;2023-11-21T09:25:08;15.38;;;4.03;;
75793;SDS011;64418;47.536;19.074;2023-11-21T09:27:37;12.52;;;4.22;;
75793;SDS011;64418;47.536;19.074;2023-11-21T09:30:08;8.90;;;3.00;;
75793;SDS011;64418;47.536;19.074;2023-11-21T09:32:35;8.70;;;4.15;;
75793;SDS011;64418;47.536;19.074;2023-11-21T09:35:02;9.73;;;3.83;;
75793;SDS011;64418;47.536;19.074;2023-11-21T09:37:30;8.57;;;4.18;;
75793;SDS011;64418;47.536;19.074;2023-11-21T09:39:57;10.55;;;4.07;;
75793;SDS011;64418;47.536;19.074;2023-11-21T09:42:25;11.27;;;3.90;;
75793;SDS011;64418;47.536;19.074;2023-11-21T09:45:00;10.57;;;4.50;;
75793;SDS011;64418;47.536;19.074;2023-11-21T09:47:33;9.70;;;4.65;;
75793;SDS011;64418;47.536;19.074;2023-11-21T09:50:04;17.25;;;4.50;;
75793;SDS011;64418;47.536;19.074;2023-11-21T09:52:31;9.15;;;4.35;;
75793;SDS011;64418;47.536;19.074;2023-11-21T09:55:02;14.87;;;4.40;;
75793;SDS011;64418;47.536;19.074;2023-11-21T09:57:29;12.13;;;4.70;;
75793;SDS011;64418;47.536;19.074;2023-11-21T09:59:56;13.27;;;3.87;;
75793;SDS011;64418;47.536;19.074;2023-11-21T10:02:26;6.78;;;3.25;;
75793;SDS011;64418;47.536;19.074;2023-11-21T10:04:55;8.18;;;3.75;;
75793;SDS011;64418;47.536;19.074;2023-11-21T10:07:21;9.83;;;3.40;;
75793;SDS011;64418;47.536;19.074;2023-11-21T10:09:48;9.48;;;3.25;;
75793;SDS011;64418;47.536;19.074;2023-11-21T10:12:17;8.23;;;4.18;;
75793;SDS011;64418;47.536;19.074;2023-11-21T10:14:45;12.30;;;4.22;;
75793;SDS011;64418;47.536;19.074;2023-11-21T10:17:14;12.63;;;4.37;;
75793;SDS011;64418;47.536;19.074;2023-11-21T10:19:40;8.27;;;4.17;;
75793;SDS011;64418;47.536;19.074;2023-11-21T10:22:11;10.13;;;4.53;;
75793;SDS011;64418;47.536;19.074;2023-11-21T10:24:38;12.18;;;3.97;;
75793;SDS011;64418;47.536;19.074;2023-11-21T10:27:05;7.10;;;3.35;;
75793;SDS011;64418;47.536;19.074;2023-11-21T10:29:33;8.30;;;3.20;;
75793;SDS011;64418;47.536;19.074;2023-11-21T10:31:59;12.70;;;3.20;;
75793;SDS011;64418;47.536;19.074;2023-11-21T10:34:26;10.20;;;3.33;;
75793;SDS011;64418;47.536;19.074;2023-11-21T10:36:53;11.70;;;3.87;;
75793;SDS011;64418;47.536;19.074;2023-11-21T10:39:22;6.32;;;2.92;;
75793;SDS011;64418;47.536;19.074;2023-11-21T10:41:48;7.15;;;3.12;;
75793;SDS011;64418;47.536;19.074;2023-11-21T10:44:16;7.57;;;2.93;;
75793;SDS011;64418;47.536;19.074;2023-11-21T10:46:43;7.93;;;3.03;;
75793;SDS011;64418;47.536;19.074;2023-11-21T10:49:09;7.72;;;2.90;;
75793;SDS011;64418;47.536;19.074;2023-11-21T10:51:36;5.80;;;3.00;;
75793;SDS011;64418;47.536;19.074;2023-11-21T10:54:08;6.40;;;2.80;;
75793;SDS011;64418;47.536;19.074;2023-11-21T10:56:36;6.50;;;3.03;;
75793;SDS011;64418;47.536;19.074;2023-11-21T10:59:03;5.90;;;2.70;;
75793;SDS011;64418;47.536;19.074;2023-11-21T11:01:31;6.00;;;3.00;;
75793;SDS011;64418;47.536;19.074;2023-11-21T11:03:57;13.35;;;3.65;;
75793;SDS011;64418;47.536;19.074;2023-11-21T11:06:25;11.20;;;3.97;;
75793;SDS011;64418;47.536;19.074;2023-11-21T11:08:53;8.53;;;3.60;;
75793;SDS011;64418;47.536;19.074;2023-11-21T11:11:20;8.75;;;3.10;;
75793;SDS011;64418;47.536;19.074;2023-11-21T11:13:48;8.63;;;3.00;;
75793;SDS011;64418;47.536;19.074;2023-11-21T11:16:14;8.13;;;3.00;;
75793;SDS011;64418;47.536;19.074;2023-11-21T11:18:43;8.30;;;3.25;;
75793;SDS011;64418;47.536;19.074;2023-11-21T11:21:11;6.33;;;3.47;;
75793;SDS011;64418;47.536;19.074;2023-11-21T11:23:53;15.52;;;5.03;;
75793;SDS011;64418;47.536;19.074;2023-11-21T11:26:37;9.85;;;5.75;;
75793;SDS011;64418;47.536;19.074;2023-11-21T11:29:17;17.90;;;6.50;;
75793;SDS011;64418;47.536;19.074;2023-11-21T11:31:54;11.55;;;6.12;;
75793;SDS011;64418;47.536;19.074;2023-11-21T11:34:29;16.93;;;6.83;;
75793;SDS011;64418;47.536;19.074;2023-11-21T11:37:00;12.60;;;5.87;;
75793;SDS011;64418;47.536;19.074;2023-11-21T11:39:27;14.85;;;5.90;;
75793;SDS011;64418;47.536;19.074;2023-11-21T11:41:55;8.55;;;5.78;;
75793;SDS011;64418;47.536;19.074;2023-11-21T11:47:24;10.93;;;5.10;;
75793;SDS011;64418;47.536;19.074;2023-11-21T11:49:56;11.05;;;5.50;;
75793;SDS011;64418;47.536;19.074;2023-11-21T11:52:33;17.73;;;5.35;;
75793;SDS011;64418;47.536;19.074;2023-11-21T11:55:01;10.38;;;5.03;;
75793;SDS011;64418;47.536;19.074;2023-11-21T11:57:39;13.10;;;5.18;;
75793;SDS011;64418;47.536;19.074;2023-11-21T12:00:21;16.47;;;6.03;;
75793;SDS011;64418;47.536;19.074;2023-11-21T12:02:48;12.18;;;5.60;;
75793;SDS011;64418;47.536;19.074;2023-11-21T12:05:18;13.70;;;5.53;;
75793;SDS011;64418;47.536;19.074;2023-11-21T12:07:46;15.63;;;5.43;;
75793;SDS011;64418;47.536;19.074;2023-11-21T12:10:14;16.30;;;5.80;;
75793;SDS011;64418;47.536;19.074;2023-11-21T12:12:43;10.73;;;5.07;;
75793;SDS011;64418;47.536;19.074;2023-11-21T12:15:13;12.25;;;5.18;;
75793;SDS011;64418;47.536;19.074;2023-11-21T12:17:43;12.90;;;5.55;;
75793;SDS011;64418;47.536;19.074;2023-11-21T12:20:10;12.10;;;5.35;;
75793;SDS011;64418;47.536;19.074;2023-11-21T12:22:38;12.60;;;6.72;;
75793;SDS011;64418;47.536;19.074;2023-11-21T12:25:09;14.37;;;5.73;;
75793;SDS011;64418;47.536;19.074;2023-11-21T12:27:37;11.93;;;5.53;;
75793;SDS011;64418;47.536;19.074;2023-11-21T12:30:05;13.77;;;6.30;;
75793;SDS011;64418;47.536;19.074;2023-11-21T12:32:35;10.88;;;6.15;;
75793;SDS011;64418;47.536;19.074;2023-11-21T12:35:02;9.80;;;5.80;;
75793;SDS011;64418;47.536;19.074;2023-11-21T12:37:28;13.50;;;5.80;;
75793;SDS011;64418;47.536;19.074;2023-11-21T12:39:57;10.88;;;6.18;;
75793;SDS011;64418;47.536;19.074;2023-11-21T12:42:23;9.90;;;5.72;;
75793;SDS011;64418;47.536;19.074;2023-11-21T12:44:53;11.12;;;5.80;;
75793;SDS011;64418;47.536;19.074;2023-11-21T12:47:44;11.38;;;6.10;;
75793;SDS011;64418;47.536;19.074;2023-11-21T12:50:15;11.30;;;5.97;;
75793;SDS011;64418;47.536;19.074;2023-11-21T12:52:44;15.90;;;6.47;;
75793;SDS011;64418;47.536;19.074;2023-11-21T12:55:13;13.00;;;5.20;;
75793;SDS011;64418;47.536;19.074;2023-11-21T12:57:44;11.02;;;5.53;;
75793;SDS011;64418;47.536;19.074;2023-11-21T13:00:16;15.20;;;6.07;;
75793;SDS011;64418;47.536;19.074;2023-11-21T13:02:46;12.50;;;5.93;;
75793;SDS011;64418;47.536;19.074;2023-11-21T13:05:19;11.48;;;5.18;;
75793;SDS011;64418;47.536;19.074;2023-11-21T13:07:49;11.45;;;5.70;;
75793;SDS011;64418;47.536;19.074;2023-11-21T13:10:18;14.27;;;5.72;;
75793;SDS011;64418;47.536;19.074;2023-11-21T13:12:44;10.73;;;6.00;;
75793;SDS011;64418;47.536;19.074;2023-11-21T13:15:13;13.77;;;6.20;;
75793;SDS011;64418;47.536;19.074;2023-11-21T13:17:39;12.25;;;6.07;;
75793;SDS011;64418;47.536;19.074;2023-11-21T13:20:10;16.12;;;6.28;;
75793;SDS011;64418;47.536;19.074;2023-11-21T13:22:38;16.52;;;6.47;;
75793;SDS011;64418;47.536;19.074;2023-11-21T13:25:04;12.52;;;5.82;;
75793;SDS011;64418;47.536;19.074;2023-11-21T13:27:31;10.53;;;4.37;;
75793;SDS011;64418;47.536;19.074;2023-11-21T13:29:58;6.28;;;3.50;;
75793;SDS011;64418;47.536;19.074;2023-11-21T13:32:24;5.03;;;2.70;;
75793;SDS011;64418;47.536;19.074;2023-11-21T13:34:53;8.93;;;2.75;;
75793;SDS011;64418;47.536;19.074;2023-11-21T13:37:20;10.18;;;3.15;;
75793;SDS011;64418;47.536;19.074;2023-11-21T13:39:49;6.67;;;2.80;;
75793;SDS011;64418;47.536;19.074;2023-11-21T13:42:16;4.32;;;3.20;;
75793;SDS011;64418;47.536;19.074;2023-11-21T13:44:43;5.57;;;3.20;;
75793;SDS011;64418;47.536;19.074;2023-11-21T13:47:09;8.77;;;4.32;;
75793;SDS011;64418;47.536;19.074;2023-11-21T13:49:39;8.73;;;2.80;;
75793;SDS011;64418;47.536;19.074;2023-11-21T13:52:05;9.77;;;4.70;;
75793;SDS011;64418;47.536;19.074;2023-11-21T13:54:34;6.07;;;3.00;;
75793;SDS011;64418;47.536;19.074;2023-11-21T13:57:01;8.45;;;3.45;;
75793;SDS011;64418;47.536;19.074;2023-11-21T13:59:28;7.57;;;3.50;;
75793;SDS011;64418;47.536;19.074;2023-11-21T14:01:56;9.80;;;4.03;;
75793;SDS011;64418;47.536;19.074;2023-11-21T14:04:23;7.67;;;3.90;;
75793;SDS011;64418;47.536;19.074;2023-11-21T14:06:51;11.15;;;3.40;;
75793;SDS011;64418;47.536;19.074;2023-11-21T14:09:17;8.50;;;3.53;;
75793;SDS011;64418;47.536;19.074;2023-11-21T14:11:48;13.43;;;3.53;;
75793;SDS011;64418;47.536;19.074;2023-11-21T14:14:15;13.88;;;4.03;;
75793;SDS011;64418;47.536;19.074;2023-11-21T14:16:42;10.57;;;3.47;;
75793;SDS011;64418;47.536;19.074;2023-11-21T14:19:08;10.63;;;3.90;;
75793;SDS011;64418;47.536;19.074;2023-11-21T14:21:35;7.18;;;3.37;;
75793;SDS011;64418;47.536;19.074;2023-11-21T14:24:01;5.87;;;3.30;;
75793;SDS011;64418;47.536;19.074;2023-11-21T14:26:27;7.70;;;3.43;;
75793;SDS011;64418;47.536;19.074;2023-11-21T14:28:55;8.95;;;3.15;;
75793;SDS011;64418;47.536;19.074;2023-11-21T14:31:22;5.78;;;2.40;;
75793;SDS011;64418;47.536;19.074;2023-11-21T14:33:48;4.68;;;2.22;;
75793;SDS011;64418;47.536;19.074;2023-11-21T14:36:15;8.38;;;2.22;;